createdAt,value
2023-04-08T00:01:50.242Z,15.30
2023-04-08T00:04:18.375Z,15.43
2023-04-08T00:06:46.566Z,15.07
2023-04-08T00:09:14.704Z,15.43
2023-04-08T00:11:43.024Z,16.30
2023-04-08T00:14:11.003Z,15.47
2023-04-08T00:16:39.049Z,14.93
2023-04-08T00:19:08.470Z,15.50
2023-04-08T00:21:36.684Z,15.13
2023-04-08T00:24:04.953Z,15.13
2023-04-08T00:26:32.972Z,15.60
2023-04-08T00:29:01.080Z,16.30
2023-04-08T00:31:29.240Z,15.33
2023-04-08T00:33:57.553Z,15.10
2023-04-08T00:36:27.770Z,15.33
2023-04-08T00:38:56.542Z,16.20
2023-04-08T00:41:24.573Z,15.27
2023-04-08T00:43:53.697Z,16.40
2023-04-08T00:46:23.320Z,16.10
2023-04-08T00:48:51.854Z,15.23
2023-04-08T00:51:20.474Z,15.37
2023-04-08T00:53:49.791Z,15.60
2023-04-08T00:56:17.786Z,15.13
2023-04-08T00:58:46.251Z,14.77
2023-04-08T01:01:20.463Z,14.70
2023-04-08T01:03:56.128Z,15.37
2023-04-08T01:06:31.688Z,14.43
2023-04-08T01:09:01.924Z,14.70
2023-04-08T01:11:32.324Z,14.87
2023-04-08T01:14:02.055Z,14.83
2023-04-08T01:16:30.479Z,14.23
2023-04-08T01:18:58.637Z,14.23
2023-04-08T01:21:27.766Z,15.07
2023-04-08T01:24:06.367Z,15.00
2023-04-08T01:26:37.147Z,15.20
2023-04-08T01:29:06.368Z,14.97
2023-04-08T01:31:35.168Z,14.77
2023-04-08T01:34:06.460Z,14.87
2023-04-08T01:36:36.746Z,14.50
2023-04-08T01:39:06.720Z,14.63
2023-04-08T01:41:38.619Z,14.37
2023-04-08T01:44:07.589Z,15.00
2023-04-08T01:46:36.925Z,15.23
2023-04-08T01:49:06.840Z,15.30
2023-04-08T01:51:37.165Z,15.63
2023-04-08T01:54:07.573Z,14.57
2023-04-08T01:56:43.547Z,14.47
2023-04-08T01:59:15.616Z,14.67
2023-04-08T02:01:45.183Z,14.60
2023-04-08T02:04:15.066Z,14.50
2023-04-08T02:06:43.540Z,13.67
2023-04-08T02:09:11.498Z,13.50
2023-04-08T02:11:40.811Z,13.60
2023-04-08T02:14:08.877Z,13.77
2023-04-08T02:16:43.853Z,13.53
2023-04-08T02:19:16.708Z,12.77
2023-04-08T02:21:47.829Z,13.17
2023-04-08T02:24:18.715Z,13.30
2023-04-08T02:26:52.292Z,12.80
2023-04-08T02:29:20.647Z,12.77
2023-04-08T02:31:49.740Z,12.40
2023-04-08T02:34:22.143Z,12.57
2023-04-08T02:36:51.167Z,11.57
2023-04-08T02:39:19.708Z,12.30
2023-04-08T02:41:49.045Z,12.50
2023-04-08T02:44:17.045Z,12.47
2023-04-08T02:46:45.047Z,12.50
2023-04-08T02:49:13.048Z,12.10
2023-04-08T02:51:41.255Z,11.70
2023-04-08T02:54:09.211Z,12.33
2023-04-08T02:56:37.207Z,12.33
2023-04-08T02:59:06.686Z,12.67
2023-04-08T03:01:34.772Z,11.60
2023-04-08T03:04:03.326Z,12.47
2023-04-08T03:06:31.494Z,12.33
2023-04-08T03:08:59.483Z,12.90
2023-04-08T03:11:27.418Z,11.97
2023-04-08T03:13:55.447Z,12.83
2023-04-08T03:16:25.453Z,12.20
2023-04-08T03:18:53.477Z,12.73
2023-04-08T03:21:21.394Z,12.73
2023-04-08T03:23:49.455Z,12.70
2023-04-08T03:26:17.483Z,13.07
2023-04-08T03:28:45.827Z,12.83
2023-04-08T03:31:14.122Z,13.43
2023-04-08T03:33:43.476Z,13.23
2023-04-08T03:36:12.187Z,12.77
2023-04-08T03:38:40.198Z,13.60
2023-04-08T03:41:08.593Z,13.70
2023-04-08T03:43:38.023Z,12.97
2023-04-08T03:46:06.283Z,13.37
2023-04-08T03:48:34.385Z,13.43
2023-04-08T03:51:03.790Z,13.67
2023-04-08T03:53:31.897Z,13.73
2023-04-08T03:56:00.054Z,13.43
2023-04-08T03:58:28.042Z,13.77
2023-04-08T04:00:55.952Z,14.13
2023-04-08T04:03:24.007Z,13.77
2023-04-08T04:05:52.941Z,13.20
2023-04-08T04:08:22.272Z,13.73
2023-04-08T04:10:50.226Z,14.30
2023-04-08T04:13:19.529Z,14.80
2023-04-08T04:15:47.567Z,14.80
2023-04-08T04:18:15.772Z,14.20
2023-04-08T04:20:44.953Z,14.43
2023-04-08T04:23:13.119Z,14.37
2023-04-08T04:25:44.287Z,14.33
2023-04-08T04:28:12.277Z,14.83
2023-04-08T04:30:41.125Z,14.77
2023-04-08T04:33:09.307Z,14.57
2023-04-08T04:35:37.291Z,14.57
2023-04-08T04:38:08.094Z,14.60
2023-04-08T04:40:36.181Z,14.97
2023-04-08T04:43:06.236Z,15.17
2023-04-08T04:45:34.231Z,16.20
2023-04-08T04:48:03.512Z,15.93
2023-04-08T04:50:31.661Z,15.37
2023-04-08T04:52:59.678Z,15.53
2023-04-08T04:55:27.968Z,15.60
2023-04-08T04:57:55.882Z,15.37
2023-04-08T05:00:25.367Z,15.33
2023-04-08T05:02:53.585Z,15.93
2023-04-08T05:05:21.788Z,16.10
2023-04-08T05:07:51.791Z,15.43
2023-04-08T05:10:20.017Z,16.23
2023-04-08T05:12:47.936Z,16.03
2023-04-08T05:15:15.886Z,15.97
2023-04-08T05:17:45.498Z,16.00
2023-04-08T05:20:15.847Z,15.90
2023-04-08T05:22:45.390Z,15.83
2023-04-08T05:25:13.459Z,34.40
2023-04-08T05:27:41.641Z,22.40
2023-04-08T05:30:10.741Z,17.63
2023-04-08T05:32:38.885Z,16.53
2023-04-08T05:35:09.654Z,16.30
2023-04-08T05:37:37.643Z,16.30
2023-04-08T05:40:06.702Z,17.10
2023-04-08T05:42:34.676Z,17.70
2023-04-08T05:45:03.428Z,18.80
2023-04-08T05:47:31.509Z,27.27
2023-04-08T05:49:59.534Z,21.20
2023-04-08T05:52:28.921Z,17.60
2023-04-08T05:54:56.938Z,19.80
2023-04-08T05:57:25.208Z,18.27
2023-04-08T05:59:53.408Z,17.73
2023-04-08T06:02:21.644Z,16.87
2023-04-08T06:04:49.698Z,17.00
2023-04-08T06:07:17.763Z,15.63
2023-04-08T06:09:47.639Z,15.20
2023-04-08T06:12:15.637Z,15.70
2023-04-08T06:14:43.568Z,16.13
2023-04-08T06:17:11.796Z,18.10
2023-04-08T06:19:39.753Z,17.60
2023-04-08T06:22:08.387Z,15.17
2023-04-08T06:24:36.282Z,15.97
2023-04-08T06:27:06.615Z,15.73
2023-04-08T06:29:34.765Z,14.67
2023-04-08T06:32:02.802Z,15.37
2023-04-08T06:34:31.907Z,17.13
2023-04-08T06:36:59.926Z,17.10
2023-04-08T06:39:27.883Z,16.63
2023-04-08T06:41:56.140Z,16.80
2023-04-08T06:44:25.531Z,15.57
2023-04-08T06:46:53.923Z,16.17
2023-04-08T06:49:21.894Z,16.20
2023-04-08T06:51:50.380Z,15.80
2023-04-08T06:54:18.333Z,15.73
2023-04-08T06:56:46.827Z,16.63
2023-04-08T06:59:16.484Z,16.33
2023-04-08T07:01:46.755Z,16.00
2023-04-08T07:04:14.863Z,17.60
2023-04-08T07:06:42.865Z,18.07
2023-04-08T07:09:10.853Z,18.13
2023-04-08T07:11:39.642Z,17.80
2023-04-08T07:14:07.620Z,17.83
2023-04-08T07:16:35.703Z,20.33
2023-04-08T07:19:05.206Z,19.13
2023-04-08T07:21:33.162Z,17.17
2023-04-08T07:24:01.764Z,16.13
2023-04-08T07:26:29.858Z,16.87
2023-04-08T07:28:57.901Z,16.00
2023-04-08T07:31:25.981Z,16.03
2023-04-08T07:33:54.029Z,17.30
2023-04-08T07:36:23.550Z,16.93
2023-04-08T07:38:52.173Z,17.37
2023-04-08T07:41:20.925Z,16.17
2023-04-08T07:43:48.936Z,17.13
2023-04-08T07:46:17.034Z,16.70
2023-04-08T07:48:45.432Z,14.63
2023-04-08T07:51:13.573Z,14.83
2023-04-08T07:53:43.063Z,14.77
2023-04-08T07:56:15.115Z,13.60
2023-04-08T07:58:43.716Z,14.83
2023-04-08T08:01:20.288Z,13.00
2023-04-08T08:03:49.063Z,12.73
2023-04-08T08:06:17.760Z,13.30
2023-04-08T08:08:47.169Z,14.43
2023-04-08T08:11:15.174Z,14.37
2023-04-08T08:13:43.798Z,13.57
2023-04-08T08:16:12.515Z,14.70
2023-04-08T08:18:41.356Z,18.87
2023-04-08T08:21:09.994Z,14.17
2023-04-08T08:23:38.481Z,13.60
2023-04-08T08:26:10.284Z,13.70
2023-04-08T08:28:38.610Z,13.70
2023-04-08T08:31:07.102Z,13.60
2023-04-08T08:33:35.706Z,13.40
2023-04-08T08:36:05.184Z,12.67
2023-04-08T08:38:33.641Z,12.97
2023-04-08T08:41:04.160Z,12.93
2023-04-08T08:43:34.586Z,13.30
2023-04-08T08:46:02.674Z,13.13
2023-04-08T08:48:30.755Z,13.57
2023-04-08T08:50:59.373Z,13.43
2023-04-08T08:53:32.767Z,13.17
2023-04-08T08:58:34.821Z,12.43
2023-04-08T09:01:03.011Z,13.17
2023-04-08T09:03:31.234Z,14.17
2023-04-08T09:06:00.750Z,13.07
2023-04-08T09:08:33.681Z,12.53
2023-04-08T09:11:17.108Z,12.53
2023-04-08T09:13:47.808Z,12.33
2023-04-08T09:16:18.238Z,14.63
2023-04-08T09:18:48.627Z,13.30
2023-04-08T09:21:18.776Z,12.80
2023-04-08T09:23:48.873Z,11.57
2023-04-08T09:26:19.465Z,8.97
2023-04-08T09:29:08.171Z,9.33
2023-04-08T09:31:45.351Z,9.80
2023-04-08T09:34:15.327Z,10.13
2023-04-08T09:36:44.588Z,11.00
2023-04-08T09:39:12.822Z,10.90
2023-04-08T09:41:41.774Z,11.53
2023-04-08T09:44:12.726Z,11.47
2023-04-08T09:46:48.432Z,11.77
2023-04-08T09:49:24.921Z,11.97
2023-04-08T09:52:00.802Z,12.23
2023-04-08T09:54:39.224Z,12.83
2023-04-08T09:57:12.766Z,13.70
2023-04-08T09:59:50.070Z,14.30
2023-04-08T10:02:25.629Z,14.20
2023-04-08T10:04:56.717Z,13.93
2023-04-08T10:07:24.885Z,13.50
2023-04-08T10:09:53.224Z,10.80
2023-04-08T10:12:21.622Z,8.50
2023-04-08T10:15:23.977Z,7.10
2023-04-08T10:17:53.658Z,6.60
2023-04-08T10:20:44.755Z,6.87
2023-04-08T10:23:14.355Z,6.47
2023-04-08T10:25:43.526Z,5.90
2023-04-08T10:28:27.597Z,5.97
2023-04-08T10:30:57.445Z,5.97
2023-04-08T10:33:34.596Z,6.17
2023-04-08T10:36:11.716Z,5.80
2023-04-08T10:38:39.980Z,5.83
2023-04-08T10:41:08.402Z,6.03
2023-04-08T10:43:37.152Z,6.40
2023-04-08T10:46:06.412Z,6.27
2023-04-08T10:48:36.014Z,6.70
2023-04-08T10:51:05.317Z,6.23
2023-04-08T10:53:34.945Z,6.07
2023-04-08T10:56:07.479Z,6.33
2023-04-08T10:58:36.748Z,6.07
2023-04-08T11:01:06.830Z,6.20
2023-04-08T11:03:38.042Z,6.43
2023-04-08T11:06:07.509Z,6.30
2023-04-08T11:08:36.753Z,6.57
2023-04-08T11:11:09.077Z,6.77
2023-04-08T11:13:37.977Z,8.30
2023-04-08T11:16:17.725Z,6.03
2023-04-08T11:18:48.511Z,6.50
2023-04-08T11:21:17.389Z,7.37
2023-04-08T11:23:45.530Z,7.30
2023-04-08T11:26:14.767Z,7.97
2023-04-08T11:28:43.434Z,9.70
2023-04-08T11:31:12.580Z,7.53
2023-04-08T11:33:49.229Z,7.73
2023-04-08T11:36:19.590Z,8.83
2023-04-08T11:38:48.265Z,10.23
2023-04-08T11:41:17.634Z,10.50
2023-04-08T11:43:58.301Z,10.27
2023-04-08T11:46:26.444Z,10.63
2023-04-08T11:49:07.989Z,11.53
2023-04-08T11:51:38.052Z,11.60
2023-04-08T11:54:07.443Z,12.47
2023-04-08T11:56:47.251Z,11.63
2023-04-08T11:59:15.542Z,13.50
2023-04-08T12:01:45.386Z,13.90
2023-04-08T12:04:15.057Z,12.30
2023-04-08T12:06:43.674Z,13.07
2023-04-08T12:09:11.712Z,12.27
2023-04-08T12:11:39.819Z,14.80
2023-04-08T12:14:08.277Z,11.20
2023-04-08T12:16:36.373Z,12.17
2023-04-08T12:19:04.432Z,12.90
2023-04-08T12:21:33.960Z,12.37
2023-04-08T12:24:02.002Z,12.33
2023-04-08T12:26:30.796Z,13.23
2023-04-08T12:28:58.781Z,14.37
2023-04-08T12:31:27.799Z,11.80
2023-04-08T12:33:55.868Z,12.13
2023-04-08T12:36:23.917Z,13.60
2023-04-08T12:38:53.860Z,12.43
2023-04-08T12:41:21.819Z,13.00
2023-04-08T12:43:49.821Z,12.90
2023-04-08T12:46:17.801Z,12.50
2023-04-08T12:51:15.668Z,11.80
2023-04-08T12:53:43.724Z,12.37
2023-04-08T12:56:13.132Z,12.27
2023-04-08T12:58:41.457Z,12.50
2023-04-08T13:01:09.592Z,13.33
2023-04-08T13:03:38.445Z,13.33
2023-04-08T13:06:06.683Z,13.00
2023-04-08T13:08:38.951Z,14.50
2023-04-08T13:11:07.201Z,13.03
2023-04-08T13:13:36.751Z,12.47
2023-04-08T13:16:05.120Z,12.80
2023-04-08T13:18:33.161Z,12.47
2023-04-08T13:21:01.250Z,12.60
2023-04-08T13:23:29.194Z,13.47
2023-04-08T13:25:57.147Z,13.67
2023-04-08T13:28:25.719Z,12.80
2023-04-08T13:30:55.819Z,13.67
2023-04-08T13:33:23.756Z,12.70
2023-04-08T13:35:51.744Z,12.30
2023-04-08T13:38:19.890Z,13.37
2023-04-08T13:40:49.449Z,12.60
2023-04-08T13:43:17.505Z,11.97
2023-04-08T13:45:46.202Z,12.63
2023-04-08T13:48:15.786Z,12.57
2023-04-08T13:50:44.030Z,13.43
2023-04-08T13:53:12.249Z,12.97
2023-04-08T13:55:40.870Z,13.57
2023-04-08T13:58:17.186Z,13.60
2023-04-08T14:00:51.316Z,12.40
2023-04-08T14:03:21.327Z,12.10
2023-04-08T14:05:50.883Z,13.00
2023-04-08T14:08:25.064Z,13.03
2023-04-08T14:10:53.291Z,13.57
2023-04-08T14:13:21.426Z,13.97
2023-04-08T14:15:49.883Z,12.93
2023-04-08T14:18:18.349Z,12.70
2023-04-08T14:20:47.752Z,14.53
2023-04-08T14:23:16.920Z,15.20
2023-04-08T14:25:45.218Z,15.57
2023-04-08T14:28:13.362Z,14.97
2023-04-08T14:30:41.726Z,14.20
2023-04-08T14:33:09.797Z,14.60
2023-04-08T14:35:38.118Z,14.13
2023-04-08T14:38:08.097Z,14.67
2023-04-08T14:40:37.578Z,14.13
2023-04-08T14:43:06.276Z,15.80
2023-04-08T14:45:34.211Z,14.17
2023-04-08T14:48:02.285Z,13.00
2023-04-08T14:50:31.013Z,13.97
2023-04-08T14:52:59.017Z,14.20
2023-04-08T14:55:28.647Z,13.87
2023-04-08T14:57:56.894Z,15.37
2023-04-08T15:00:25.307Z,13.20
2023-04-08T15:02:54.136Z,15.13
2023-04-08T15:05:22.268Z,13.63
2023-04-08T15:07:50.286Z,13.80
2023-04-08T15:10:18.329Z,13.50
2023-04-08T15:12:47.817Z,13.97
2023-04-08T15:15:16.314Z,13.37
2023-04-08T15:17:44.316Z,13.27
2023-04-08T15:20:13.446Z,12.80
2023-04-08T15:22:41.531Z,12.77
2023-04-08T15:25:10.675Z,11.80
2023-04-08T15:27:38.986Z,12.20
2023-04-08T15:30:12.221Z,11.77
2023-04-08T15:32:41.373Z,15.10
2023-04-08T15:35:10.903Z,12.17
2023-04-08T15:37:38.982Z,13.73
2023-04-08T15:40:08.533Z,12.60
2023-04-08T15:42:36.648Z,12.57
2023-04-08T15:45:05.255Z,12.80
2023-04-08T15:47:35.228Z,10.63
2023-04-08T15:50:03.808Z,13.80
2023-04-08T15:52:32.950Z,11.50
2023-04-08T15:55:02.463Z,13.17
2023-04-08T15:57:32.165Z,12.70
2023-04-08T16:00:00.337Z,24.77
2023-04-08T16:02:29.799Z,49.70
2023-04-08T16:04:59.449Z,12.10
2023-04-08T16:07:27.628Z,10.33
2023-04-08T16:09:55.625Z,11.67
2023-04-08T16:12:25.532Z,13.60
2023-04-08T16:14:53.710Z,25.70
2023-04-08T16:17:21.980Z,10.73
2023-04-08T16:19:51.517Z,11.43
2023-04-08T16:22:21.267Z,10.00
2023-04-08T16:24:49.472Z,10.00
2023-04-08T16:27:18.128Z,9.70
2023-04-08T16:29:46.721Z,10.00
2023-04-08T16:32:14.722Z,9.83
2023-04-08T16:34:42.722Z,9.43
2023-04-08T16:37:10.851Z,9.60
2023-04-08T16:39:44.237Z,9.30
2023-04-08T16:42:12.186Z,9.80
2023-04-08T16:44:40.749Z,10.70
2023-04-08T16:47:08.787Z,13.17
2023-04-08T16:49:36.835Z,11.27
2023-04-08T16:52:05.021Z,11.13
2023-04-08T16:54:33.021Z,10.37
2023-04-08T16:57:02.682Z,9.93
2023-04-08T16:59:30.808Z,12.83
2023-04-08T17:01:58.852Z,9.90
2023-04-08T17:04:27.157Z,11.97
2023-04-08T17:06:55.309Z,11.80
2023-04-08T17:09:24.656Z,10.40
2023-04-08T17:11:52.749Z,9.97
2023-04-08T17:14:22.281Z,10.47
2023-04-08T17:16:53.735Z,11.07
2023-04-08T17:19:21.829Z,10.37
2023-04-08T17:21:49.874Z,10.53
2023-04-08T17:24:17.883Z,9.77
2023-04-08T17:26:46.256Z,9.90
2023-04-08T17:29:14.489Z,10.60
2023-04-08T17:31:44.345Z,10.50
2023-04-08T17:34:12.422Z,10.70
2023-04-08T17:36:40.425Z,10.90
2023-04-08T17:39:08.696Z,11.43
2023-04-08T17:41:40.136Z,11.20
2023-04-08T17:44:08.909Z,12.27
2023-04-08T17:46:37.270Z,12.77
2023-04-08T17:49:06.664Z,12.73
2023-04-08T17:51:34.758Z,13.77
2023-04-08T17:54:03.299Z,13.97
2023-04-08T17:56:31.322Z,12.77
2023-04-08T17:58:59.361Z,14.00
2023-04-08T18:01:27.373Z,14.40
2023-04-08T18:03:56.084Z,15.33
2023-04-08T18:06:26.370Z,15.03
2023-04-08T18:08:54.344Z,15.57
2023-04-08T18:11:24.255Z,14.33
2023-04-08T18:13:52.589Z,13.70
2023-04-08T18:16:22.065Z,14.77
2023-04-08T18:18:51.066Z,13.00
2023-04-08T18:21:19.061Z,12.10
2023-04-08T18:23:48.532Z,13.43
2023-04-08T18:26:16.842Z,13.57
2023-04-08T18:28:44.924Z,13.53
2023-04-08T18:31:13.355Z,15.03
2023-04-08T18:33:41.519Z,12.60
2023-04-08T18:36:10.452Z,12.53
2023-04-08T18:38:40.744Z,13.00
2023-04-08T18:41:10.182Z,12.70
2023-04-08T18:43:41.460Z,12.20
2023-04-08T18:46:09.505Z,12.57
2023-04-08T18:48:37.679Z,13.50
2023-04-08T18:51:05.842Z,13.50
2023-04-08T18:53:33.992Z,13.23
2023-04-08T18:56:02.738Z,14.17
2023-04-08T18:58:33.479Z,13.30
2023-04-08T19:01:01.491Z,13.33
2023-04-08T19:03:29.656Z,13.73
2023-04-08T19:05:57.729Z,13.03
2023-04-08T19:08:26.383Z,12.73
2023-04-08T19:10:54.526Z,12.80
2023-04-08T19:13:23.836Z,12.37
2023-04-08T19:15:53.506Z,13.07
2023-04-08T19:18:21.841Z,13.40
2023-04-08T19:20:50.265Z,13.67
2023-04-08T19:23:18.994Z,13.00
2023-04-08T19:25:47.344Z,13.70
2023-04-08T19:28:15.510Z,14.80
2023-04-08T19:30:43.521Z,13.83
2023-04-08T19:33:13.302Z,13.43
2023-04-08T19:35:41.871Z,12.97
2023-04-08T19:38:09.967Z,13.67
2023-04-08T19:40:38.053Z,14.43
2023-04-08T19:43:06.515Z,14.27
2023-04-08T19:45:35.289Z,14.63
2023-04-08T19:48:03.468Z,14.80
2023-04-08T19:50:33.090Z,15.50
2023-04-08T19:53:01.659Z,15.37
2023-04-08T19:55:29.877Z,14.93
2023-04-08T19:57:58.815Z,15.30
2023-04-08T20:00:29.254Z,14.27
2023-04-08T20:02:58.724Z,13.90
2023-04-08T20:05:26.964Z,14.50
2023-04-08T20:07:56.348Z,14.87
2023-04-08T20:10:25.280Z,14.20
2023-04-08T20:12:53.941Z,13.27
2023-04-08T20:15:25.246Z,12.27
2023-04-08T20:17:54.057Z,12.57
2023-04-08T20:20:22.825Z,11.90
2023-04-08T20:22:51.416Z,11.70
2023-04-08T20:25:21.081Z,12.27
2023-04-08T20:27:49.236Z,11.53
2023-04-08T20:30:17.332Z,12.20
2023-04-08T20:32:45.422Z,12.53
2023-04-08T20:35:14.207Z,11.83
2023-04-08T20:37:42.272Z,11.73
2023-04-08T20:40:11.107Z,11.40
2023-04-08T20:42:43.937Z,11.10
2023-04-08T20:45:13.017Z,11.50
2023-04-08T20:47:42.722Z,12.17
2023-04-08T20:50:12.072Z,11.70
2023-04-08T20:52:40.305Z,11.57
2023-04-08T20:55:09.245Z,11.80
2023-04-08T20:57:37.413Z,12.03
2023-04-08T21:00:10.557Z,10.50
2023-04-08T21:02:43.410Z,11.40
2023-04-08T21:05:13.388Z,10.83
2023-04-08T21:07:44.402Z,11.53
2023-04-08T21:10:14.946Z,11.03
2023-04-08T21:12:42.924Z,10.50
2023-04-08T21:15:12.749Z,11.00
2023-04-08T21:17:40.943Z,11.20
2023-04-08T21:20:10.450Z,11.13
2023-04-08T21:22:38.896Z,10.73
2023-04-08T21:25:07.792Z,9.97
2023-04-08T21:27:35.910Z,11.03
2023-04-08T21:30:04.613Z,11.03
2023-04-08T21:32:34.651Z,11.80
2023-04-08T21:35:03.131Z,11.80
2023-04-08T21:37:31.283Z,12.23
2023-04-08T21:39:59.355Z,11.67
2023-04-08T21:42:27.684Z,11.17
2023-04-08T21:44:55.793Z,11.00
2023-04-08T21:47:24.237Z,11.50
2023-04-08T21:49:54.233Z,11.03
2023-04-08T21:52:22.278Z,11.23
2023-04-08T21:54:51.515Z,11.53
2023-04-08T21:57:19.857Z,11.57
2023-04-08T21:59:48.103Z,10.73
2023-04-08T22:02:16.389Z,11.10
2023-04-08T22:04:44.702Z,10.60
2023-04-08T22:07:14.114Z,11.17
2023-04-08T22:09:42.158Z,11.93
2023-04-08T22:12:10.940Z,11.40
2023-04-08T22:14:39.048Z,11.63
2023-04-08T22:17:07.178Z,11.43
2023-04-08T22:19:35.528Z,11.40
2023-04-08T22:22:03.486Z,12.10
2023-04-08T22:24:33.440Z,11.20
2023-04-08T22:27:01.436Z,11.47
2023-04-08T22:29:29.437Z,12.07
2023-04-08T22:31:57.438Z,11.63
2023-04-08T22:34:25.637Z,12.10
2023-04-08T22:36:54.518Z,11.83
2023-04-08T22:39:22.597Z,11.23
2023-04-08T22:41:52.049Z,11.27
2023-04-08T22:44:20.044Z,10.53
2023-04-08T22:46:48.044Z,11.20
2023-04-08T22:49:16.226Z,11.27
2023-04-08T22:51:44.369Z,11.13
2023-04-08T22:54:12.346Z,11.63
2023-04-08T22:56:40.392Z,10.90
2023-04-08T22:59:09.760Z,11.93
2023-04-08T23:01:41.170Z,11.83
2023-04-08T23:04:09.487Z,11.13
2023-04-08T23:06:37.502Z,11.47
2023-04-08T23:09:05.478Z,11.63
2023-04-08T23:11:33.453Z,12.13
2023-04-08T23:14:01.742Z,11.47
2023-04-08T23:16:33.151Z,12.00
2023-04-08T23:19:01.097Z,12.27
2023-04-08T23:21:29.193Z,11.30
2023-04-08T23:23:57.241Z,12.97
2023-04-08T23:26:25.483Z,13.13
2023-04-08T23:28:53.814Z,11.97
2023-04-08T23:31:22.177Z,12.53
2023-04-08T23:33:51.528Z,13.03
2023-04-08T23:36:19.523Z,13.20
2023-04-08T23:38:48.147Z,12.90
2023-04-08T23:41:16.124Z,13.33
2023-04-08T23:43:44.084Z,13.13
2023-04-08T23:46:12.113Z,13.83
2023-04-08T23:48:40.303Z,13.63
2023-04-08T23:51:11.871Z,12.53
2023-04-08T23:53:39.999Z,14.40
2023-04-08T23:56:09.494Z,14.00
2023-04-08T23:58:37.797Z,13.17
